Time;durP1;ratioP1;P1;durP2;ratioP2;P2;SDS_P1;SDS_P2;PMS_P1;PMS_P2;Temp;Humidity;BMP_temperature;BMP_pressure;BME280_temperature;BME280_humidity;BME280_pressure;Samples;Min_cycle;Max_cycle;Signal;HPM_P1;HPM_P2
2024/04/20 00:01:20;;;;;;;3.63;1.20;;;7.60;99.90;;;;;;5465445;26;20006;-88
2024/04/20 00:03:50;;;;;;;7.35;1.50;;;7.40;99.90;;;;;;5494443;26;20028;-88
2024/04/20 00:06:17;;;;;;;5.45;1.30;;;6.70;99.90;;;;;;5481377;26;20021;-88
2024/04/20 00:08:45;;;;;;;12.73;1.35;;;7.00;99.90;;;;;;5506035;26;20006;-88
2024/04/20 00:11:11;;;;;;;7.28;1.20;;;6.70;99.90;;;;;;5459449;26;20003;-88
2024/04/20 00:13:39;;;;;;;7.25;1.30;;;6.60;99.90;;;;;;5501715;26;20006;-89
2024/04/20 00:16:07;;;;;;;5.40;1.65;;;6.90;99.90;;;;;;5496167;26;20006;-88
2024/04/20 00:18:35;;;;;;;6.60;1.23;;;6.70;99.90;;;;;;5526461;26;20005;-87
2024/04/20 00:21:02;;;;;;;3.92;1.00;;;6.60;99.90;;;;;;5464090;26;20010;-88
2024/04/20 00:23:29;;;;;;;4.03;1.00;;;6.70;99.90;;;;;;5499205;26;20058;-88
2024/04/20 00:25:56;;;;;;;2.65;0.95;;;6.60;99.90;;;;;;5536432;26;20020;-88
2024/04/20 00:28:23;;;;;;;11.73;1.33;;;6.70;99.90;;;;;;5512791;26;20013;-88
2024/04/20 00:31:00;;;;;;;2.72;0.75;;;6.60;99.90;;;;;;5499614;26;20373;-88
2024/04/20 00:33:35;;;;;;;8.98;1.25;;;6.60;99.90;;;;;;5537388;26;20005;-88
2024/04/20 00:36:02;;;;;;;7.10;1.20;;;6.60;99.90;;;;;;5490166;26;20447;-87
2024/04/20 00:38:29;;;;;;;7.95;1.27;;;6.60;99.90;;;;;;5497683;26;20014;-87
2024/04/20 00:40:57;;;;;;;6.63;1.08;;;6.60;99.90;;;;;;5551785;26;20462;-88
2024/04/20 00:43:24;;;;;;;8.18;1.02;;;6.60;99.90;;;;;;5495217;26;20006;-87
2024/04/20 00:45:52;;;;;;;6.82;1.00;;;7.00;99.90;;;;;;5464700;26;20006;-87
2024/04/20 00:48:21;;;;;;;4.72;1.13;;;7.10;99.90;;;;;;5497662;26;20374;-88
2024/04/20 00:50:50;;;;;;;4.68;1.10;;;7.10;99.90;;;;;;5498450;26;20747;-88
2024/04/20 00:53:18;;;;;;;5.68;1.23;;;6.70;99.90;;;;;;5504056;26;20017;-88
2024/04/20 00:55:47;;;;;;;3.42;1.20;;;6.70;99.90;;;;;;5494865;26;20447;-87
2024/04/20 00:58:15;;;;;;;5.45;1.35;;;6.70;99.90;;;;;;5502152;26;20122;-88
2024/04/20 01:00:42;;;;;;;3.55;1.02;;;6.80;99.90;;;;;;5493247;26;20354;-87
2024/04/20 01:03:09;;;;;;;10.13;1.13;;;7.40;99.90;;;;;;5493206;26;20006;-87
2024/04/20 01:05:39;;;;;;;12.70;1.33;;;6.70;99.90;;;;;;5492443;26;20006;-88
2024/04/20 01:08:08;;;;;;;9.23;1.38;;;6.80;99.90;;;;;;5497014;26;20773;-88
2024/04/20 01:10:56;;;;;;;7.60;1.35;;;6.80;99.90;;;;;;5497171;26;20010;-88
2024/04/20 01:13:26;;;;;;;7.88;1.17;;;7.20;99.90;;;;;;5520647;26;20009;-87
2024/04/20 01:15:53;;;;;;;5.40;2.17;;;7.40;99.90;;;;;;5490631;26;20013;-88
2024/04/20 01:18:20;;;;;;;3.47;0.90;;;6.90;99.90;;;;;;5508087;26;20013;-88
2024/04/20 01:20:47;;;;;;;5.20;1.20;;;7.20;99.90;;;;;;5508985;26;20006;-88
2024/04/20 01:23:15;;;;;;;5.50;1.38;;;6.80;99.90;;;;;;5533550;26;20034;-87
2024/04/20 01:25:51;;;;;;;6.00;1.00;;;7.00;99.90;;;;;;5502506;26;20041;-87
2024/04/20 01:28:18;;;;;;;11.75;1.20;;;6.80;99.90;;;;;;5498340;26;20021;-88
2024/04/20 01:30:45;;;;;;;6.88;1.20;;;6.70;99.90;;;;;;5481507;26;20007;-87
2024/04/20 01:33:12;;;;;;;4.47;1.10;;;6.70;99.90;;;;;;5513429;26;20002;-87
2024/04/20 01:35:40;;;;;;;4.53;1.15;;;6.80;99.90;;;;;;5536103;26;20025;-87
2024/04/20 01:38:07;;;;;;;8.02;1.02;;;6.70;99.90;;;;;;5497803;26;20030;-88
2024/04/20 01:40:34;;;;;;;5.22;1.40;;;6.60;99.90;;;;;;5504636;26;20001;-87
2024/04/20 01:43:01;;;;;;;5.05;0.98;;;6.50;99.90;;;;;;5557055;25;20519;-87
2024/04/20 01:45:28;;;;;;;3.78;1.15;;;7.30;99.90;;;;;;5500374;26;20034;-87
2024/04/20 01:47:55;;;;;;;6.10;1.17;;;7.10;99.90;;;;;;5518568;26;20147;-87
2024/04/20 01:50:23;;;;;;;4.35;1.10;;;6.20;99.90;;;;;;5507975;26;20002;-88
2024/04/20 01:52:58;;;;;;;4.97;1.00;;;7.10;99.90;;;;;;5480135;26;20017;-87
2024/04/20 01:55:24;;;;;;;6.22;1.25;;;7.30;99.90;;;;;;5505992;26;20010;-87
2024/04/20 01:57:51;;;;;;;6.05;1.10;;;6.50;99.90;;;;;;5489963;26;20054;-87
2024/04/20 02:00:18;;;;;;;4.63;1.00;;;6.50;99.90;;;;;;5496765;26;20042;-87
2024/04/20 02:02:45;;;;;;;7.68;1.40;;;6.50;99.90;;;;;;5522265;26;20081;-87
2024/04/20 02:05:13;;;;;;;5.55;1.05;;;6.50;99.90;;;;;;5526484;26;20021;-87
2024/04/20 02:07:40;;;;;;;10.48;1.63;;;6.80;99.90;;;;;;5486243;26;20018;-87
2024/04/20 02:10:07;;;;;;;8.68;1.40;;;7.10;99.90;;;;;;5485624;26;20057;-87
2024/04/20 02:12:34;;;;;;;5.18;1.30;;;6.70;99.90;;;;;;5473827;26;20010;-87
2024/04/20 02:15:01;;;;;;;5.32;1.10;;;6.60;99.90;;;;;;5497636;26;20463;-87
2024/04/20 02:17:28;;;;;;;3.72;1.20;;;7.30;99.90;;;;;;5528845;26;20017;-88
2024/04/20 02:19:54;;;;;;;4.20;0.90;;;6.70;99.90;;;;;;5495144;26;20017;-88
2024/04/20 02:22:21;;;;;;;3.88;1.00;;;6.70;99.90;;;;;;5497547;26;20017;-87
2024/04/20 02:24:48;;;;;;;4.47;1.10;;;6.80;99.90;;;;;;5529253;26;20006;-87
2024/04/20 02:27:15;;;;;;;7.25;1.13;;;6.60;99.90;;;;;;5497413;26;20006;-87
2024/04/20 02:29:41;;;;;;;9.77;1.42;;;6.60;99.90;;;;;;5515196;26;20007;-87
2024/04/20 02:32:08;;;;;;;5.38;1.00;;;6.50;99.90;;;;;;5487175;26;20467;-87
2024/04/20 02:34:35;;;;;;;8.43;1.20;;;6.50;99.90;;;;;;5521491;26;20078;-88
2024/04/20 02:37:05;;;;;;;3.83;1.00;;;6.50;99.90;;;;;;5496620;26;20021;-87
2024/04/20 02:39:32;;;;;;;4.10;1.02;;;6.40;99.90;;;;;;5492694;26;20446;-87
2024/04/20 02:41:59;;;;;;;2.78;1.00;;;6.40;99.90;;;;;;5492735;26;20082;-87
2024/04/20 02:44:26;;;;;;;4.20;0.98;;;6.40;99.90;;;;;;5475468;26;20014;-87
2024/04/20 02:46:53;;;;;;;7.53;1.30;;;6.40;99.90;;;;;;5528968;26;20341;-87
2024/04/20 02:49:19;;;;;;;3.42;0.88;;;6.40;99.90;;;;;;5514513;26;20005;-87
2024/04/20 02:51:47;;;;;;;4.93;1.20;;;6.40;99.90;;;;;;5495732;26;20017;-87
2024/04/20 02:54:15;;;;;;;4.85;1.13;;;7.00;99.90;;;;;;5474154;26;20452;-87
2024/04/20 02:56:42;;;;;;;3.80;1.00;;;6.40;99.90;;;;;;5502403;26;20020;-87
2024/04/20 02:59:09;;;;;;;5.70;1.60;;;6.40;99.90;;;;;;5516923;26;20017;-87
2024/04/20 03:01:56;;;;;;;3.80;0.90;;;6.30;99.90;;;;;;5476887;26;20002;-87
2024/04/20 03:04:23;;;;;;;5.80;1.08;;;6.40;99.90;;;;;;5528805;26;20055;-87
2024/04/20 03:06:49;;;;;;;4.55;1.00;;;6.40;99.90;;;;;;5528401;26;20046;-87
2024/04/20 03:09:36;;;;;;;6.35;1.17;;;7.00;99.90;;;;;;5463013;26;20003;-87
2024/04/20 03:12:23;;;;;;;5.90;1.27;;;6.30;99.90;;;;;;5519054;26;20001;-87
2024/04/20 03:14:53;;;;;;;5.00;1.13;;;6.30;99.90;;;;;;5511242;26;20013;-88
2024/04/20 03:17:20;;;;;;;6.95;1.17;;;5.80;99.90;;;;;;5508571;26;20455;-87
2024/04/20 03:19:47;;;;;;;5.18;1.00;;;6.30;99.90;;;;;;5508617;26;20033;-87
2024/04/20 03:22:14;;;;;;;6.28;1.10;;;7.20;99.90;;;;;;5496161;26;20469;-87
2024/04/20 03:24:41;;;;;;;3.58;1.10;;;6.30;99.90;;;;;;5557458;25;20006;-87
2024/04/20 03:27:20;;;;;;;4.57;0.90;;;6.30;99.90;;;;;;5500064;26;20865;-87
2024/04/20 03:29:47;;;;;;;5.25;0.85;;;6.30;99.90;;;;;;5546870;26;20080;-87
2024/04/20 03:32:13;;;;;;;6.75;1.30;;;7.10;99.90;;;;;;5520387;26;20077;-87
2024/04/20 03:34:40;;;;;;;8.63;1.10;;;6.40;99.90;;;;;;5510150;26;20006;-87
2024/04/20 03:37:11;;;;;;;4.32;1.05;;;6.40;99.90;;;;;;5520932;26;20014;-87
2024/04/20 03:39:40;;;;;;;4.70;0.80;;;6.50;99.90;;;;;;5496555;26;20006;-87
2024/04/20 03:42:07;;;;;;;2.72;0.93;;;6.40;99.90;;;;;;5495960;26;20021;-87
2024/04/20 03:44:34;;;;;;;6.88;1.00;;;6.40;99.90;;;;;;5514574;26;20019;-87
2024/04/20 03:47:00;;;;;;;3.33;1.08;;;6.50;99.90;;;;;;5496774;26;20021;-87
2024/04/20 03:49:28;;;;;;;4.50;1.27;;;6.40;99.90;;;;;;5495920;26;20041;-87
2024/04/20 03:51:55;;;;;;;3.85;1.13;;;6.50;99.90;;;;;;5500185;26;20534;-87
2024/04/20 03:54:22;;;;;;;5.93;1.10;;;6.60;99.90;;;;;;5531070;26;20025;-86
2024/04/20 03:56:49;;;;;;;5.28;1.30;;;6.60;99.90;;;;;;5465401;26;20006;-87
2024/04/20 03:59:36;;;;;;;5.13;1.17;;;6.20;99.90;;;;;;5486642;26;20012;-87
2024/04/20 04:02:26;;;;;;;6.07;1.30;;;7.10;99.90;;;;;;5496546;26;20002;-87
2024/04/20 04:05:13;;;;;;;4.20;1.20;;;6.20;99.90;;;;;;5494894;26;20037;-87
2024/04/20 04:08:00;;;;;;;4.63;1.10;;;6.10;99.90;;;;;;5477321;26;20083;-87
2024/04/20 04:10:48;;;;;;;6.13;0.93;;;6.10;99.90;;;;;;5493859;26;20024;-87
2024/04/20 04:13:34;;;;;;;6.22;1.27;;;6.70;99.90;;;;;;5491342;26;20424;-86
2024/04/20 04:16:21;;;;;;;2.53;1.05;;;6.00;99.90;;;;;;5467805;26;20003;-87
2024/04/20 04:19:08;;;;;;;7.70;0.90;;;6.00;99.90;;;;;;5468174;25;20009;-87
2024/04/20 04:21:55;;;;;;;4.93;1.10;;;5.90;99.90;;;;;;5512870;26;20043;-87
2024/04/20 04:24:42;;;;;;;6.68;1.23;;;6.10;99.90;;;;;;5469548;26;20017;-87
2024/04/20 04:27:29;;;;;;;7.18;0.95;;;6.00;99.90;;;;;;5492977;26;20002;-87
2024/04/20 04:30:16;;;;;;;4.00;1.20;;;6.00;99.90;;;;;;5490904;26;20465;-87
2024/04/20 04:33:02;;;;;;;3.10;0.80;;;6.50;99.90;;;;;;5490084;26;20013;-87
2024/04/20 04:35:59;;;;;;;8.18;1.10;;;6.10;99.90;;;;;;5502284;26;20002;-87
2024/04/20 04:38:46;;;;;;;5.90;1.20;;;6.10;99.90;;;;;;5468092;26;20444;-88
2024/04/20 04:41:33;;;;;;;7.00;1.10;;;6.10;99.90;;;;;;5494502;26;20013;-87
2024/04/20 04:44:19;;;;;;;9.65;1.35;;;7.10;99.90;;;;;;5475647;26;20002;-87
2024/04/20 04:47:06;;;;;;;7.18;1.33;;;6.50;99.90;;;;;;5480565;26;20010;-87
2024/04/20 04:49:53;;;;;;;6.88;1.30;;;6.30;99.90;;;;;;5490474;26;21098;-87
2024/04/20 04:52:40;;;;;;;9.05;1.40;;;6.20;99.90;;;;;;5492131;26;20006;-87
2024/04/20 04:55:29;;;;;;;6.82;1.42;;;6.10;99.90;;;;;;5480746;26;20012;-87
2024/04/20 04:58:16;;;;;;;5.30;1.10;;;6.20;99.90;;;;;;5457020;26;20020;-87
2024/04/20 05:01:03;;;;;;;3.58;0.90;;;6.20;99.90;;;;;;5473947;26;20003;-87
2024/04/20 05:03:49;;;;;;;5.30;1.10;;;6.10;99.90;;;;;;5498427;26;20034;-87
2024/04/20 05:06:36;;;;;;;6.10;1.15;;;6.10;99.90;;;;;;5495193;26;20001;-87
2024/04/20 05:09:23;;;;;;;4.43;1.15;;;6.50;99.90;;;;;;5466629;26;20030;-87
2024/04/20 05:12:10;;;;;;;6.60;1.30;;;6.10;99.90;;;;;;5479915;26;20002;-87
2024/04/20 05:14:57;;;;;;;5.07;1.25;;;6.00;99.90;;;;;;5474257;26;20002;-87
2024/04/20 05:17:44;;;;;;;4.60;1.20;;;6.00;99.90;;;;;;5481308;26;20351;-87
2024/04/20 05:20:31;;;;;;;4.65;1.17;;;6.00;99.90;;;;;;5464663;26;20003;-87
2024/04/20 05:23:18;;;;;;;3.15;1.30;;;6.10;99.90;;;;;;5472539;26;20002;-87
2024/04/20 05:26:05;;;;;;;6.78;1.58;;;6.00;99.90;;;;;;5481037;26;20050;-87
2024/04/20 05:28:52;;;;;;;3.85;1.13;;;6.00;99.90;;;;;;5486191;26;20002;-87
2024/04/20 05:31:38;;;;;;;2.15;1.00;;;6.00;99.90;;;;;;5485835;26;20003;-87
2024/04/20 05:34:25;;;;;;;5.53;1.00;;;6.60;99.90;;;;;;5485182;26;20023;-87
2024/04/20 05:37:12;;;;;;;3.88;1.10;;;5.90;99.90;;;;;;5491784;26;20014;-87
2024/04/20 05:39:59;;;;;;;3.78;1.10;;;6.50;99.90;;;;;;5465631;26;20003;-86
2024/04/20 05:42:45;;;;;;;5.75;1.10;;;6.10;99.90;;;;;;5499226;26;20002;-86
2024/04/20 05:45:39;;;;;;;2.85;1.00;;;5.90;99.90;;;;;;5485085;26;20075;-86
2024/04/20 05:48:28;;;;;;;4.35;0.88;;;5.80;99.90;;;;;;5449836;26;20010;-86
2024/04/20 05:51:15;;;;;;;5.55;1.00;;;5.80;99.90;;;;;;5482851;26;20038;-86
2024/04/20 05:54:02;;;;;;;5.53;1.33;;;5.80;99.90;;;;;;5470743;26;20010;-86
2024/04/20 05:56:49;;;;;;;5.05;1.17;;;5.70;99.90;;;;;;5496403;26;20006;-86
2024/04/20 05:59:39;;;;;;;3.70;1.00;;;6.50;99.90;;;;;;5471991;26;20078;-86
2024/04/20 06:02:27;;;;;;;4.30;1.10;;;5.60;99.90;;;;;;5481141;26;20007;-87
2024/04/20 06:05:14;;;;;;;4.70;1.13;;;5.70;99.90;;;;;;5481040;26;20005;-87
2024/04/20 06:08:01;;;;;;;3.05;1.08;;;6.30;99.90;;;;;;5503148;26;20016;-87
2024/04/20 06:10:58;;;;;;;2.85;0.80;;;6.30;99.90;;;;;;5494940;26;20038;-87
2024/04/20 06:13:45;;;;;;;3.63;1.52;;;5.70;99.90;;;;;;5456496;26;20003;-87
2024/04/20 06:16:31;;;;;;;2.67;1.00;;;6.30;99.90;;;;;;5529012;26;20989;-87
2024/04/20 06:19:18;;;;;;;2.17;1.00;;;5.70;99.90;;;;;;5504871;26;20012;-86
2024/04/20 06:22:05;;;;;;;5.00;1.10;;;5.80;99.90;;;;;;5477303;26;20002;-86
2024/04/20 06:24:53;;;;;;;3.72;0.90;;;5.80;99.90;;;;;;5474163;26;20013;-87
2024/04/20 06:27:40;;;;;;;4.57;1.23;;;5.80;99.90;;;;;;5497750;26;20017;-86
2024/04/20 06:30:27;;;;;;;5.13;1.42;;;5.80;99.90;;;;;;5505028;26;20002;-86
2024/04/20 06:33:14;;;;;;;2.90;1.00;;;6.30;99.90;;;;;;5500736;26;20006;-85
2024/04/20 06:36:01;;;;;;;3.35;1.10;;;6.30;99.90;;;;;;5506305;26;20407;-86
2024/04/20 06:38:50;;;;;;;3.72;0.98;;;5.90;99.90;;;;;;5496697;25;20005;-85
2024/04/20 06:41:37;;;;;;;7.97;1.13;;;5.90;99.90;;;;;;5466479;26;19997;-85
2024/04/20 06:44:24;;;;;;;4.10;0.93;;;6.60;99.90;;;;;;5477452;26;20074;-86
2024/04/20 06:47:10;;;;;;;5.50;0.93;;;6.00;99.90;;;;;;5479473;26;20727;-86
2024/04/20 06:49:57;;;;;;;2.17;0.85;;;6.90;99.90;;;;;;5479285;26;20450;-86
2024/04/20 06:52:45;;;;;;;3.20;1.00;;;6.20;99.90;;;;;;5475161;26;20416;-86
2024/04/20 06:55:33;;;;;;;3.65;0.90;;;6.60;99.90;;;;;;5461136;26;20010;-86
2024/04/20 06:58:20;;;;;;;3.00;0.90;;;6.30;99.90;;;;;;5475309;26;20022;-86
2024/04/20 07:01:06;;;;;;;2.70;0.80;;;6.20;99.90;;;;;;5494214;26;20010;-86
2024/04/20 07:03:56;;;;;;;4.85;0.90;;;6.20;99.90;;;;;;5490591;25;20002;-86
2024/04/20 07:06:43;;;;;;;3.80;0.90;;;6.80;99.90;;;;;;5476731;26;20014;-86
2024/04/20 07:09:30;;;;;;;2.90;0.73;;;6.10;99.90;;;;;;5464882;26;20079;-86
2024/04/20 07:12:17;;;;;;;3.45;0.80;;;6.10;99.90;;;;;;5517656;25;20077;-85
2024/04/20 07:15:04;;;;;;;3.80;1.05;;;6.90;99.90;;;;;;5481096;26;20016;-85
2024/04/20 07:17:51;;;;;;;2.85;0.90;;;6.00;99.90;;;;;;5483677;26;20010;-85
2024/04/20 07:20:37;;;;;;;5.03;0.80;;;6.80;99.90;;;;;;5476355;26;20086;-85
2024/04/20 07:23:24;;;;;;;4.15;0.95;;;6.30;99.90;;;;;;5474037;26;20001;-86
2024/04/20 07:26:11;;;;;;;3.50;0.98;;;6.20;99.90;;;;;;5489520;26;20072;-86
2024/04/20 07:29:00;;;;;;;4.15;1.00;;;6.20;99.90;;;;;;5510918;26;20002;-85
2024/04/20 07:31:46;;;;;;;4.57;0.90;;;6.30;99.90;;;;;;5501065;26;20034;-85
2024/04/20 07:34:33;;;;;;;3.38;1.00;;;6.90;99.90;;;;;;5468546;26;20002;-85
2024/04/20 07:37:20;;;;;;;4.20;0.80;;;6.50;99.90;;;;;;5473657;26;20006;-86
2024/04/20 07:40:07;;;;;;;3.65;1.10;;;6.90;99.90;;;;;;5477046;26;20030;-85
2024/04/20 07:42:54;;;;;;;8.82;1.10;;;6.70;99.90;;;;;;5506693;26;20020;-85
2024/04/20 07:45:41;;;;;;;2.03;0.80;;;6.90;99.90;;;;;;5496110;26;20076;-86
2024/04/20 07:48:28;;;;;;;3.70;0.88;;;7.00;99.90;;;;;;5484301;26;20003;-85
2024/04/20 07:51:15;;;;;;;2.80;0.95;;;7.00;99.90;;;;;;5478333;26;20017;-85
2024/04/20 07:54:02;;;;;;;3.92;0.90;;;7.40;99.90;;;;;;5499905;26;20493;-85
2024/04/20 07:56:50;;;;;;;5.70;1.20;;;7.30;99.90;;;;;;5486830;26;20081;-85
2024/04/20 07:59:39;;;;;;;4.72;1.15;;;7.30;99.90;;;;;;5476341;26;20003;-85
2024/04/20 08:02:26;;;;;;;3.88;1.00;;;7.40;99.90;;;;;;5512083;26;20042;-84
2024/04/20 08:05:13;;;;;;;2.58;1.00;;;7.50;99.90;;;;;;5454443;26;20052;-86
2024/04/20 08:08:00;;;;;;;4.63;1.00;;;6.90;99.90;;;;;;5523200;26;19998;-90
2024/04/20 08:10:47;;;;;;;4.95;1.35;;;8.10;99.90;;;;;;5522860;25;20629;-88
2024/04/20 08:13:35;;;;;;;7.60;1.30;;;8.30;99.90;;;;;;5470314;26;20001;-88
2024/04/20 08:16:22;;;;;;;3.50;0.98;;;8.40;99.90;;;;;;5481164;26;20005;-88
2024/04/20 08:19:09;;;;;;;3.83;0.98;;;8.40;99.90;;;;;;5504294;26;20013;-88
2024/04/20 08:21:55;;;;;;;4.15;0.90;;;7.90;99.90;;;;;;5476500;26;20002;-88
2024/04/20 08:24:42;;;;;;;3.42;1.10;;;8.30;99.90;;;;;;5464509;26;20002;-88
2024/04/20 08:27:30;;;;;;;3.22;1.00;;;8.60;99.90;;;;;;5478226;26;20002;-88
2024/04/20 08:30:17;;;;;;;4.40;1.00;;;9.00;99.90;;;;;;5517172;26;20014;-88
2024/04/20 08:33:04;;;;;;;3.53;0.90;;;8.50;99.90;;;;;;5500534;26;20082;-88
2024/04/20 08:35:51;;;;;;;5.38;1.70;;;8.40;99.90;;;;;;5506325;26;20103;-89
2024/04/20 08:38:37;;;;;;;6.97;1.58;;;8.40;99.90;;;;;;5466904;26;20017;-88
2024/04/20 08:41:25;;;;;;;5.40;1.00;;;8.50;99.90;;;;;;5490231;26;20002;-88
2024/04/20 08:44:17;;;;;;;5.85;1.20;;;8.00;99.90;;;;;;5471734;26;20013;-88
2024/04/20 08:47:09;;;;;;;6.00;1.25;;;8.20;99.90;;;;;;5482999;26;20485;-88
2024/04/20 08:49:58;;;;;;;9.38;2.13;;;7.80;99.90;;;;;;5492276;26;20002;-88
2024/04/20 08:52:47;;;;;;;4.32;1.17;;;8.10;99.90;;;;;;5480698;26;20671;-89
2024/04/20 08:55:34;;;;;;;3.88;0.95;;;8.70;99.90;;;;;;5494084;26;20017;-89
2024/04/20 08:58:22;;;;;;;4.95;0.80;;;8.60;99.90;;;;;;5481617;26;20849;-89
2024/04/20 09:00:51;;;;;;;4.38;0.70;;;8.40;99.90;;;;;;5536514;26;20010;-90
2024/04/20 09:03:18;;;;;;;5.18;0.80;;;8.20;99.90;;;;;;5491846;26;20378;-87
2024/04/20 09:06:07;;;;;;;4.40;1.00;;;8.90;99.90;;;;;;5473887;26;20006;-87
2024/04/20 09:08:57;;;;;;;3.00;0.80;;;8.30;99.90;;;;;;5494804;26;20011;-87
2024/04/20 09:11:24;;;;;;;3.22;0.68;;;8.50;99.90;;;;;;5521273;25;20007;-87
2024/04/20 09:14:11;;;;;;;4.68;0.80;;;8.70;99.90;;;;;;5484271;26;20002;-88
2024/04/20 09:16:39;;;;;;;3.97;0.77;;;9.10;99.90;;;;;;5521329;26;20029;-87
2024/04/20 09:19:26;;;;;;;5.63;0.95;;;8.90;99.90;;;;;;5508478;26;20052;-88
2024/04/20 09:22:13;;;;;;;3.58;0.95;;;9.20;99.90;;;;;;5475109;26;20010;-86
2024/04/20 09:25:05;;;;;;;3.20;0.90;;;9.00;99.90;;;;;;5500365;26;20002;-94
2024/04/20 09:27:51;;;;;;;2.92;0.80;;;9.00;99.90;;;;;;5467374;26;20439;-84
2024/04/20 09:30:38;;;;;;;4.50;0.70;;;9.00;99.90;;;;;;5486044;26;20003;-84
2024/04/20 09:33:26;;;;;;;3.25;0.73;;;9.00;99.90;;;;;;5491847;26;20012;-85
2024/04/20 09:36:12;;;;;;;2.00;0.60;;;9.10;99.90;;;;;;5470313;26;20009;-84
2024/04/20 09:39:01;;;;;;;6.05;0.80;;;9.70;99.90;;;;;;5482741;26;20002;-84
2024/04/20 09:41:52;;;;;;;2.92;1.25;;;9.30;99.90;;;;;;5470452;26;20012;-84
2024/04/20 09:44:40;;;;;;;3.58;0.77;;;9.40;99.90;;;;;;5502982;26;20033;-85
2024/04/20 09:47:32;;;;;;;3.20;0.68;;;10.20;99.90;;;;;;5476015;26;20002;-83
2024/04/20 09:50:20;;;;;;;4.63;0.80;;;9.80;99.90;;;;;;5489625;26;20003;-86
2024/04/20 09:53:31;;;;;;;4.80;1.10;;;10.10;99.90;;;;;;5502871;26;20009;-86
2024/04/20 09:56:20;;;;;;;3.60;0.77;;;10.30;99.90;;;;;;5500367;26;20006;-85
2024/04/20 09:59:08;;;;;;;4.82;1.00;;;10.30;99.90;;;;;;5481706;26;20032;-84
2024/04/20 10:01:55;;;;;;;3.97;1.10;;;10.60;99.90;;;;;;5542281;26;20002;-85
2024/04/20 10:04:44;;;;;;;6.35;0.80;;;10.10;99.90;;;;;;5450151;26;20003;-93
2024/04/20 10:07:33;;;;;;;4.03;0.82;;;10.00;99.90;;;;;;5486529;26;20003;-85
2024/04/20 10:10:22;;;;;;;5.32;1.00;;;10.00;99.90;;;;;;5489422;26;20009;-85
2024/04/20 10:13:09;;;;;;;3.67;1.00;;;10.00;99.90;;;;;;5482913;26;20080;-85
2024/04/20 10:15:58;;;;;;;5.97;1.10;;;10.10;99.90;;;;;;5438710;26;20456;-85
2024/04/20 10:18:46;;;;;;;5.55;0.80;;;10.10;99.90;;;;;;5461654;26;20011;-89
2024/04/20 10:21:33;;;;;;;6.40;1.30;;;10.30;99.90;;;;;;5479446;26;20014;-87
2024/04/20 10:24:20;;;;;;;6.15;1.10;;;9.90;99.90;;;;;;5465085;26;20030;-91
2024/04/20 10:27:07;;;;;;;4.38;1.00;;;9.90;99.90;;;;;;5466813;26;20002;-89
2024/04/20 10:30:18;;;;;;;3.45;0.93;;;9.90;99.90;;;;;;5446062;26;20003;-89
2024/04/20 10:33:07;;;;;;;6.20;1.00;;;10.10;99.90;;;;;;5465896;26;20018;-89
2024/04/20 10:35:58;;;;;;;2.80;0.50;;;10.30;99.90;;;;;;5471251;26;20003;-88
2024/04/20 10:38:44;;;;;;;2.50;0.43;;;10.30;99.90;;;;;;5494040;26;20002;-89
2024/04/20 10:41:36;;;;;;;3.22;0.60;;;10.80;99.90;;;;;;5494984;26;20006;-89
2024/04/20 10:44:27;;;;;;;3.63;0.73;;;10.60;99.90;;;;;;5459845;26;20003;-89
2024/04/20 10:47:21;;;;;;;3.58;0.70;;;10.60;99.90;;;;;;5446241;26;20003;-89
2024/04/20 10:50:11;;;;;;;1.92;0.60;;;10.60;99.90;;;;;;5472515;26;20015;-89
2024/04/20 10:53:05;;;;;;;3.70;0.60;;;10.80;99.90;;;;;;5506402;26;20006;-89
2024/04/20 10:55:56;;;;;;;2.60;0.80;;;10.70;99.90;;;;;;5452577;26;20018;-88
2024/04/20 10:58:43;;;;;;;4.82;0.80;;;10.90;99.90;;;;;;5483681;26;20021;-87
2024/04/20 11:01:11;;;;;;;2.38;0.63;;;11.10;99.90;;;;;;5499604;26;20006;-89
2024/04/20 11:03:38;;;;;;;5.65;1.13;;;10.90;99.90;;;;;;5506807;26;20002;-88
2024/04/20 11:06:06;;;;;;;5.70;0.95;;;10.90;99.90;;;;;;5495873;26;20002;-89
2024/04/20 11:08:54;;;;;;;7.97;1.45;;;10.70;99.90;;;;;;5477612;26;20052;-89
2024/04/20 11:11:40;;;;;;;5.70;1.00;;;10.80;99.90;;;;;;5466614;26;20010;-88
2024/04/20 11:14:28;;;;;;;4.57;0.82;;;10.80;99.90;;;;;;5488264;26;20074;-89
2024/04/20 11:17:15;;;;;;;4.32;1.15;;;10.80;99.90;;;;;;5461925;26;20002;-89
2024/04/20 11:20:02;;;;;;;4.30;0.80;;;10.60;99.90;;;;;;5484851;26;20016;-89
2024/04/20 11:22:52;;;;;;;6.75;1.08;;;10.70;99.90;;;;;;5472063;26;20021;-89
2024/04/20 11:25:49;;;;;;;3.30;0.70;;;11.00;99.90;;;;;;5499117;26;20016;-90
2024/04/20 11:28:37;;;;;;;7.95;1.13;;;11.30;99.90;;;;;;5517212;25;20005;-89
2024/04/20 11:31:23;;;;;;;5.82;0.90;;;11.40;99.90;;;;;;5459307;26;20002;-90
2024/04/20 11:34:20;;;;;;;4.47;0.70;;;11.60;99.90;;;;;;5477195;26;20031;-88
2024/04/20 11:37:07;;;;;;;5.95;1.00;;;11.60;99.90;;;;;;5482642;26;20002;-89
2024/04/20 11:40:05;;;;;;;3.10;0.98;;;11.40;99.90;;;;;;5488136;26;20002;-89
2024/04/20 11:43:02;;;;;;;5.72;1.00;;;11.10;99.90;;;;;;5491559;26;20074;-90
2024/04/20 11:45:54;;;;;;;5.20;0.82;;;10.90;99.90;;;;;;5461254;26;20455;-89
2024/04/20 11:48:41;;;;;;;5.22;1.13;;;10.80;99.90;;;;;;5451104;26;20003;-89
2024/04/20 11:54:33;;;;;;;3.15;1.02;;;10.80;99.90;;;;;;5517993;26;20461;-88
2024/04/20 11:57:00;;;;;;;3.22;0.80;;;10.70;99.90;;;;;;5512941;26;20078;-89
2024/04/20 11:59:28;;;;;;;5.50;1.00;;;10.70;99.90;;;;;;5524109;26;20015;-89
2024/04/20 12:01:55;;;;;;;7.35;1.02;;;11.00;99.90;;;;;;5509567;26;20024;-89
2024/04/20 12:04:21;;;;;;;6.30;1.05;;;10.50;99.90;;;;;;5492221;26;20007;-88
2024/04/20 12:06:48;;;;;;;4.47;0.93;;;10.50;99.90;;;;;;5492855;26;20018;-89
2024/04/20 12:09:16;;;;;;;6.65;0.90;;;10.50;99.90;;;;;;5538703;25;20025;-89
2024/04/20 12:11:42;;;;;;;4.97;1.00;;;10.60;99.90;;;;;;5497431;26;20006;-89
2024/04/20 12:14:10;;;;;;;6.07;0.85;;;10.60;99.90;;;;;;5504975;26;20007;-89
2024/04/20 12:16:38;;;;;;;2.20;0.50;;;10.90;99.90;;;;;;5492710;26;20047;-89
2024/04/20 12:19:05;;;;;;;5.05;1.02;;;11.30;99.90;;;;;;5497431;26;20017;-89
2024/04/20 12:21:32;;;;;;;5.30;0.90;;;11.50;99.90;;;;;;5496836;26;20012;-89
2024/04/20 12:23:59;;;;;;;3.95;0.90;;;11.70;99.90;;;;;;5501845;26;20018;-90
2024/04/20 12:26:26;;;;;;;5.45;1.25;;;11.60;99.90;;;;;;5481884;26;20007;-88
2024/04/20 12:28:53;;;;;;;7.03;1.00;;;11.20;99.90;;;;;;5499866;26;20486;-89
2024/04/20 12:31:19;;;;;;;5.25;1.00;;;11.20;99.90;;;;;;5500792;26;20018;-89
2024/04/20 12:33:46;;;;;;;5.38;1.25;;;11.30;99.90;;;;;;5521367;26;20017;-89
2024/04/20 12:36:16;;;;;;;6.53;1.30;;;11.40;99.90;;;;;;5484824;26;20022;-90
2024/04/20 12:38:43;;;;;;;3.97;1.08;;;11.40;99.90;;;;;;5500299;26;20042;-89
2024/04/20 12:41:10;;;;;;;4.68;1.33;;;11.10;99.90;;;;;;5499217;26;20028;-89
2024/04/20 12:43:36;;;;;;;9.30;1.15;;;11.10;99.90;;;;;;5549898;26;20030;-90
2024/04/20 12:46:06;;;;;;;5.38;1.25;;;11.30;99.90;;;;;;5474816;26;20007;-88
2024/04/20 12:48:33;;;;;;;5.43;0.90;;;11.60;99.90;;;;;;5513526;26;20446;-86
2024/04/20 12:51:01;;;;;;;3.80;1.00;;;11.60;99.90;;;;;;5527605;26;20017;-88
2024/04/20 12:53:27;;;;;;;4.93;0.90;;;11.60;99.90;;;;;;5496113;26;20461;-89
2024/04/20 12:55:54;;;;;;;5.65;1.20;;;12.10;99.90;;;;;;5527518;26;20006;-88
2024/04/20 12:58:21;;;;;;;6.15;1.27;;;11.30;99.90;;;;;;5512108;26;20013;-85
2024/04/20 13:00:48;;;;;;;4.35;0.90;;;11.70;99.90;;;;;;5493504;26;20006;-87
2024/04/20 13:03:15;;;;;;;4.50;1.00;;;11.10;99.90;;;;;;5528331;26;20459;-87
2024/04/20 13:05:42;;;;;;;2.92;0.60;;;11.20;99.90;;;;;;5504274;26;20469;-90
2024/04/20 13:08:09;;;;;;;3.13;0.82;;;11.10;99.90;;;;;;5492485;26;20085;-87
2024/04/20 13:10:37;;;;;;;5.78;1.00;;;11.00;99.90;;;;;;5498696;26;20006;-87
2024/04/20 13:13:04;;;;;;;3.42;0.75;;;11.10;99.90;;;;;;5491937;26;20007;-87
2024/04/20 13:15:31;;;;;;;4.13;0.90;;;11.30;99.90;;;;;;5505820;26;20013;-87
2024/04/20 13:18:01;;;;;;;3.10;0.75;;;11.60;99.90;;;;;;5514152;26;20010;-87
2024/04/20 13:20:28;;;;;;;5.55;1.02;;;11.80;99.90;;;;;;5500638;26;20074;-88
2024/04/20 13:22:55;;;;;;;3.33;0.90;;;12.00;99.90;;;;;;5540127;26;20072;-94
2024/04/20 13:25:21;;;;;;;4.63;1.00;;;11.60;99.90;;;;;;5520624;26;20006;-87
2024/04/20 13:27:48;;;;;;;5.28;0.82;;;11.30;99.90;;;;;;5518863;26;20007;-86
2024/04/20 13:30:15;;;;;;;1.73;0.68;;;11.30;99.90;;;;;;5497795;26;20006;-87
2024/04/20 13:32:42;;;;;;;5.55;0.95;;;11.20;99.90;;;;;;5529814;26;20006;-86
2024/04/20 13:35:08;;;;;;;3.83;0.93;;;11.20;99.90;;;;;;5503686;26;20005;-87
2024/04/20 13:37:36;;;;;;;1.83;0.65;;;11.10;99.90;;;;;;5501553;26;20014;-86
2024/04/20 13:40:03;;;;;;;2.55;0.80;;;11.20;99.90;;;;;;5515539;26;20014;-89
2024/04/20 13:42:29;;;;;;;2.38;0.60;;;11.10;99.90;;;;;;5498612;26;20022;-87
2024/04/20 13:44:56;;;;;;;4.07;0.95;;;11.20;99.90;;;;;;5489682;26;20014;-88
2024/04/20 13:47:26;;;;;;;3.63;1.10;;;11.20;99.90;;;;;;5480958;26;20055;-87
2024/04/20 13:49:53;;;;;;;4.20;0.90;;;11.20;99.90;;;;;;5497897;26;20041;-87
2024/04/20 13:52:20;;;;;;;5.25;0.70;;;11.00;99.90;;;;;;5498175;26;20006;-87
2024/04/20 13:54:48;;;;;;;2.78;0.60;;;10.80;99.90;;;;;;5498207;26;20006;-88